KHND Airport (Henderson Executive) Information

FAA: HND - ICAO: KHND

KHND Airport Location

State Nevada
County Clark
City Las Vegas
KHND Airport is 11 miles south of Las Vegas, NV.
Latitude 35-58-22.3000N
Longitude 115-08-04.0000W
Elevation 2,491ft

KHND Airport METARs

METAR KHND 060656Z AUTO 18007KT 10SM CLR 10/M08 A3013 RMK AO2 SLP212 T01001083 402330061
Altimeter 30.13"
Temperature 10.0°C (50.0°F)
Wind 180° at 7KT
Clouds Skies are clear.
Visibility 10.0mi
Time observed: 2021-12-06T06:56:00Z

KHND Airport Details

Status Operational
Activation October 1970
Ownership Public
Usage Public
Chart LAS VEGAS
ATC on-site Yes
Beacon schedule sunset-sunrise
Beacon color clear green

KHND Airport Contacts

Owner CLARK COUNTY
Owner address P.O. BOX 11005, LAS VEGAS, NV 89111
Owner phone 702-261-4802
Manager JAMES LASSITER-MGR OF SECURITY
Manager address 3001 ST ROSE PARKWAY, HENDERSON, NV 89052
Manager phone 702-616-5055

KHND Airport (Henderson Executive) Radio Frequencies

KHND (Airport) Radio Frequencies

UNICOM 122.95
Common traffic advisory frequency (CTAF) 125.1